Time;durP1;ratioP1;P1;durP2;ratioP2;P2;SDS_P1;SDS_P2;PMS_P1;PMS_P2;Temp;Humidity;BMP_temperature;BMP_pressure;BME280_temperature;BME280_humidity;BME280_pressure;Samples;Min_cycle;Max_cycle;Signal;HPM_P1;HPM_P2
2021/12/25 00:01:39;;;;;;;;;;;5.40;91.40;;;;;;5049991;28;20463;-75
2021/12/25 00:04:07;;;;;;;;;;;5.50;91.10;;;;;;5049931;28;19983;-75
2021/12/25 00:06:33;;;;;;;;;;;5.60;90.80;;;;;;5046094;28;19948;-75
2021/12/25 00:08:58;;;;;;;;;;;5.70;90.60;;;;;;5045326;28;19940;-75
2021/12/25 00:11:24;;;;;;;;;;;5.70;90.30;;;;;;5053070;28;19935;-75
2021/12/25 00:13:49;;;;;;;;;;;5.70;90.00;;;;;;5053523;28;19978;-75
2021/12/25 00:16:15;;;;;;;;;;;5.60;89.80;;;;;;5051987;28;19928;-75
2021/12/25 00:18:40;;;;;;;;;;;5.40;90.10;;;;;;5052867;28;20153;-75
2021/12/25 00:21:06;;;;;;;;;;;5.30;90.50;;;;;;5053145;28;19933;-74
2021/12/25 00:23:31;;;;;;;;;;;5.10;90.80;;;;;;5053044;28;19961;-74
2021/12/25 00:26:06;;;;;;;;;;;4.90;91.10;;;;;;5052904;28;20443;-74
2021/12/25 00:33:37;;;;;;;;;;;4.70;92.50;;;;;;5053159;28;20389;-75
2021/12/25 00:36:04;;;;;;;;;;;4.90;92.60;;;;;;5051701;28;19934;-75
2021/12/25 00:38:31;;;;;;;;;;;5.10;92.70;;;;;;5053062;28;19937;-75
2021/12/25 00:40:57;;;;;;;;;;;5.20;92.30;;;;;;5051435;28;19934;-74
2021/12/25 00:43:23;;;;;;;;;;;5.30;90.80;;;;;;5052585;28;19935;-75
2021/12/25 00:45:48;;;;;;;;;;;5.20;88.70;;;;;;5052599;28;19944;-75
2021/12/25 00:48:14;;;;;;;;;;;5.30;87.50;;;;;;5052941;28;19941;-74
2021/12/25 00:50:39;;;;;;;;;;;5.40;85.40;;;;;;5052679;28;19936;-75
2021/12/25 00:53:05;;;;;;;;;;;5.40;83.90;;;;;;5052470;28;19941;-75
2021/12/25 00:55:30;;;;;;;;;;;5.50;82.60;;;;;;5050807;28;19983;-75
2021/12/25 00:57:56;;;;;;;;;;;5.50;82.40;;;;;;5052663;28;19987;-75
2021/12/25 01:00:21;;;;;;;;;;;5.50;82.40;;;;;;5052592;28;19929;-75
2021/12/25 01:02:47;;;;;;;;;;;5.60;81.70;;;;;;5051317;28;19936;-75
2021/12/25 01:05:14;;;;;;;;;;;5.50;81.50;;;;;;5052909;28;19969;-75
2021/12/25 01:07:40;;;;;;;;;;;5.60;81.40;;;;;;5044751;28;19938;-75
2021/12/25 01:10:09;;;;;;;;;;;5.70;81.30;;;;;;5052471;28;19966;-75
2021/12/25 01:12:54;;;;;;;;;;;5.70;81.60;;;;;;5051450;28;19970;-75
2021/12/25 01:15:26;;;;;;;;;;;5.70;81.80;;;;;;5052714;28;19937;-75
2021/12/25 01:26:45;;;;;;;;;;;5.00;84.10;;;;;;5052553;28;19959;-75
2021/12/25 01:29:04;;;;;;;;;;;5.00;84.10;;;;;;5054843;28;19943;-75
2021/12/25 01:31:25;;;;;;;;;;;5.00;83.00;;;;;;5051801;28;19952;-75
2021/12/25 01:49:13;;;;;;;;;;;5.20;81.80;;;;;;5052211;28;19947;-75
2021/12/25 01:51:39;;;;;;;;;;;5.20;81.00;;;;;;5052200;28;19943;-75
2021/12/25 01:54:04;;;;;;;;;;;5.20;80.80;;;;;;5051779;28;19987;-76
2021/12/25 01:56:30;;;;;;;;;;;5.20;80.80;;;;;;5051013;28;19944;-75
2021/12/25 01:58:55;;;;;;;;;;;5.20;80.90;;;;;;5050311;28;20298;-76
2021/12/25 02:01:21;;;;;;;;;;;5.00;81.10;;;;;;5051384;28;19946;-75
2021/12/25 02:03:47;;;;;;;;;;;5.10;80.40;;;;;;5050648;28;19986;-76
2021/12/25 02:06:12;;;;;;;;;;;5.10;79.70;;;;;;5049247;28;20016;-75
2021/12/25 02:08:39;;;;;;;;;;;5.10;79.70;;;;;;5045739;28;20027;-76
2021/12/25 02:11:05;;;;;;;;;;;4.90;80.20;;;;;;5050107;28;20407;-76
2021/12/25 02:13:31;;;;;;;;;;;5.00;81.30;;;;;;5050222;28;19954;-76
2021/12/25 02:15:58;;;;;;;;;;;5.00;81.60;;;;;;5050098;28;19957;-76
2021/12/25 02:18:36;;;;;;;;;;;5.00;81.70;;;;;;5051056;28;19941;-76
2021/12/25 02:21:10;;;;;;;;;;;5.10;81.60;;;;;;5049725;28;20306;-76
2021/12/25 02:23:36;;;;;;;;;;;5.10;81.70;;;;;;5051470;28;19967;-76
2021/12/25 02:26:02;;;;;;;;;;;5.10;81.40;;;;;;5051101;28;20012;-76
2021/12/25 02:28:27;;;;;;;;;;;5.10;81.20;;;;;;5051040;28;20399;-76
2021/12/25 02:30:55;;;;;;;;;;;5.00;81.20;;;;;;5050895;28;20402;-76
2021/12/25 02:33:20;;;;;;;;;;;4.90;81.60;;;;;;5049050;28;20225;-76
2021/12/25 02:35:46;;;;;;;;;;;4.60;83.30;;;;;;5049775;28;20489;-76
2021/12/25 02:38:13;;;;;;;;;;;4.50;83.90;;;;;;5051041;28;19954;-76
2021/12/25 02:40:38;;;;;;;;;;;4.30;84.60;;;;;;5049485;28;19990;-76
2021/12/25 02:43:04;;;;;;;;;;;4.20;85.90;;;;;;5051150;28;19937;-76
2021/12/25 02:45:30;;;;;;;;;;;4.20;86.40;;;;;;5050257;28;20342;-76
2021/12/25 02:47:56;;;;;;;;;;;4.10;86.50;;;;;;5050980;28;20418;-76
2021/12/25 02:50:26;;;;;;;;;;;4.10;86.90;;;;;;5050670;28;20480;-76
2021/12/25 02:52:52;;;;;;;;;;;4.10;86.70;;;;;;5050937;28;19946;-76
2021/12/25 02:55:18;;;;;;;;;;;4.20;86.70;;;;;;5050734;28;19951;-76
2021/12/25 02:57:49;;;;;;;;;;;4.30;86.60;;;;;;5050190;28;20458;-76
2021/12/25 03:00:15;;;;;;;;;;;4.40;85.60;;;;;;5049505;28;19986;-76
2021/12/25 03:02:41;;;;;;;;;;;4.50;84.70;;;;;;5050800;28;19948;-76
2021/12/25 03:05:07;;;;;;;;;;;4.60;84.00;;;;;;5050612;28;19962;-76
2021/12/25 03:07:32;;;;;;;;;;;4.70;83.20;;;;;;5044387;28;20067;-76
2021/12/25 03:09:58;;;;;;;;;;;4.70;82.80;;;;;;5049219;28;19950;-76
2021/12/25 03:12:33;;;;;;;;;;;4.60;83.30;;;;;;5050453;28;19987;-76
2021/12/25 03:15:06;;;;;;;;;;;4.70;82.80;;;;;;5050765;28;19948;-76
2021/12/25 03:17:32;;;;;;;;;;;4.70;82.30;;;;;;5049109;28;20427;-76
2021/12/25 03:19:58;;;;;;;;;;;4.60;83.40;;;;;;5048664;28;19949;-76
2021/12/25 03:22:24;;;;;;;;;;;4.50;84.30;;;;;;5050561;28;19935;-76
2021/12/25 03:24:50;;;;;;;;;;;4.50;85.00;;;;;;5048918;28;19974;-76
2021/12/25 03:27:16;;;;;;;;;;;4.50;85.80;;;;;;5049018;28;19973;-76
2021/12/25 03:29:42;;;;;;;;;;;4.40;86.10;;;;;;5050392;28;20386;-76
2021/12/25 03:32:09;;;;;;;;;;;4.40;85.60;;;;;;5050110;28;19945;-76
2021/12/25 03:34:34;;;;;;;;;;;4.20;85.70;;;;;;5048965;28;20044;-76
2021/12/25 03:37:00;;;;;;;;;;;4.30;85.80;;;;;;5048927;28;20028;-76
2021/12/25 03:39:26;;;;;;;;;;;4.40;85.30;;;;;;5050108;28;20343;-76
2021/12/25 03:41:51;;;;;;;;;;;4.50;84.40;;;;;;5050677;28;19942;-76
2021/12/25 03:44:17;;;;;;;;;;;4.60;83.70;;;;;;5049014;28;20481;-76
2021/12/25 03:46:43;;;;;;;;;;;4.80;83.10;;;;;;5053317;28;19978;-76
2021/12/25 03:57:42;;;;;;;;;;;4.50;83.50;;;;;;5053578;28;19947;-76
2021/12/25 04:00:08;;;;;;;;;;;4.40;84.30;;;;;;5052726;28;19952;-76
2021/12/25 04:02:50;;;;;;;;;;;4.40;84.60;;;;;;5053796;28;19942;-76
2021/12/25 04:05:18;;;;;;;;;;;4.30;84.70;;;;;;5054496;28;19939;-76
2021/12/25 04:08:07;;;;;;;;;;;4.20;85.00;;;;;;5047483;28;20076;-76
2021/12/25 04:10:34;;;;;;;;;;;4.20;85.20;;;;;;5052953;28;19982;-76
2021/12/25 04:13:00;;;;;;;;;;;4.10;85.50;;;;;;5053688;28;19945;-76
2021/12/25 04:15:25;;;;;;;;;;;4.10;85.50;;;;;;5052616;28;20497;-76
2021/12/25 04:17:51;;;;;;;;;;;4.10;85.00;;;;;;5053703;28;19950;-76
2021/12/25 04:20:17;;;;;;;;;;;4.10;85.20;;;;;;5052473;28;19944;-76
2021/12/25 04:22:59;;;;;;;;;;;4.20;85.10;;;;;;5051939;28;20473;-76
2021/12/25 04:25:28;;;;;;;;;;;4.30;85.00;;;;;;5053415;28;19988;-76
2021/12/25 04:27:56;;;;;;;;;;;4.20;85.20;;;;;;5051702;28;20016;-76
2021/12/25 04:31:11;;;;;;;;;;;4.10;85.10;;;;;;5053685;28;19951;-76
2021/12/25 05:05:26;;;;;;;;;;;4.50;84.80;;;;;;5052958;28;19948;-76
2021/12/25 05:07:52;;;;;;;;;;;4.60;84.80;;;;;;5044823;28;19967;-76
2021/12/25 05:10:17;;;;;;;;;;;4.50;85.00;;;;;;5052812;28;20037;-76
2021/12/25 05:12:43;;;;;;;;;;;4.60;85.20;;;;;;5051226;28;19947;-76
2021/12/25 05:15:08;;;;;;;;;;;4.70;85.20;;;;;;5052587;28;20417;-76
2021/12/25 05:17:34;;;;;;;;;;;4.60;85.10;;;;;;5052629;28;20384;-76
2021/12/25 05:19:59;;;;;;;;;;;4.50;86.10;;;;;;5050966;28;20372;-76
2021/12/25 05:22:25;;;;;;;;;;;4.40;86.50;;;;;;5050930;28;19941;-76
2021/12/25 05:24:51;;;;;;;;;;;4.40;86.80;;;;;;5052015;28;20294;-76
2021/12/25 05:27:18;;;;;;;;;;;4.40;87.30;;;;;;5052146;28;19973;-76
2021/12/25 05:29:46;;;;;;;;;;;4.30;87.50;;;;;;5051084;28;19970;-76
2021/12/25 05:32:17;;;;;;;;;;;4.40;87.60;;;;;;5050581;28;20004;-76
2021/12/25 05:34:42;;;;;;;;;;;4.50;87.40;;;;;;5050911;28;19963;-76
2021/12/25 05:37:08;;;;;;;;;;;4.60;86.90;;;;;;5051790;28;19943;-76
2021/12/25 05:39:34;;;;;;;;;;;4.70;86.70;;;;;;5052375;28;20328;-76
2021/12/25 05:41:59;;;;;;;;;;;4.80;86.50;;;;;;5050762;28;19947;-76
2021/12/25 05:44:25;;;;;;;;;;;4.90;86.20;;;;;;5052102;28;20331;-76
2021/12/25 05:46:51;;;;;;;;;;;4.90;86.30;;;;;;5051849;28;20454;-76
2021/12/25 05:49:17;;;;;;;;;;;4.90;86.30;;;;;;5052115;28;19941;-76
2021/12/25 05:51:42;;;;;;;;;;;4.90;86.50;;;;;;5052069;28;19949;-76
2021/12/25 05:54:08;;;;;;;;;;;4.80;86.80;;;;;;5050599;28;19941;-76
2021/12/25 05:56:33;;;;;;;;;;;4.80;87.10;;;;;;5052649;28;19946;-76
2021/12/25 05:58:59;;;;;;;;;;;4.60;87.40;;;;;;5051692;28;19944;-76
2021/12/25 06:01:25;;;;;;;;;;;4.50;88.10;;;;;;5050775;28;19948;-76
2021/12/25 06:03:51;;;;;;;;;;;4.50;88.30;;;;;;5052514;28;19942;-76
2021/12/25 06:06:16;;;;;;;;;;;4.40;89.10;;;;;;5051502;28;20321;-76
2021/12/25 06:08:42;;;;;;;;;;;4.30;89.90;;;;;;5045091;28;19945;-76
2021/12/25 06:11:07;;;;;;;;;;;4.20;90.30;;;;;;5051833;28;19959;-76
2021/12/25 06:13:37;;;;;;;;;;;4.30;90.50;;;;;;5051779;28;19944;-76
2021/12/25 06:16:03;;;;;;;;;;;4.40;90.40;;;;;;5051395;28;20009;-76
2021/12/25 06:18:29;;;;;;;;;;;4.40;90.40;;;;;;5051515;28;20389;-76
2021/12/25 06:20:54;;;;;;;;;;;4.30;90.50;;;;;;5051413;28;19941;-76
2021/12/25 06:23:20;;;;;;;;;;;4.30;90.60;;;;;;5051991;28;19944;-76
2021/12/25 06:25:45;;;;;;;;;;;4.20;90.80;;;;;;5050125;28;20071;-76
2021/12/25 06:28:11;;;;;;;;;;;4.10;90.90;;;;;;5050153;28;19971;-76
2021/12/25 06:30:38;;;;;;;;;;;4.10;91.10;;;;;;5051499;28;19944;-76
2021/12/25 06:33:04;;;;;;;;;;;4.00;91.20;;;;;;5051456;28;20325;-76
2021/12/25 06:35:31;;;;;;;;;;;3.90;91.50;;;;;;5050491;28;19946;-76
2021/12/25 06:37:56;;;;;;;;;;;3.90;91.60;;;;;;5049874;28;19941;-76
2021/12/25 06:40:22;;;;;;;;;;;3.90;91.60;;;;;;5049871;28;20420;-76
2021/12/25 06:42:48;;;;;;;;;;;3.90;91.30;;;;;;5051557;28;19973;-76
2021/12/25 06:45:14;;;;;;;;;;;3.90;91.10;;;;;;5058576;22;19986;-76
2021/12/25 06:47:40;;;;;;;;;;;3.90;90.90;;;;;;5050707;28;20443;-76
2021/12/25 06:50:09;;;;;;;;;;;4.00;90.80;;;;;;5051125;28;20318;-76
2021/12/25 06:52:35;;;;;;;;;;;4.00;91.10;;;;;;5050929;28;19990;-76
2021/12/25 06:55:01;;;;;;;;;;;4.00;91.30;;;;;;5050828;28;20381;-76
2021/12/25 06:57:28;;;;;;;;;;;4.00;91.50;;;;;;5050522;28;20463;-76
2021/12/25 06:59:54;;;;;;;;;;;4.10;91.60;;;;;;5050878;28;19942;-76
2021/12/25 07:02:20;;;;;;;;;;;4.20;91.50;;;;;;5050956;28;20418;-76
2021/12/25 07:04:45;;;;;;;;;;;4.20;91.50;;;;;;5051032;28;19945;-76
2021/12/25 07:07:11;;;;;;;;;;;4.30;91.30;;;;;;5046233;28;20074;-76
2021/12/25 07:09:36;;;;;;;;;;;4.30;91.20;;;;;;5049093;28;19939;-76
2021/12/25 07:12:02;;;;;;;;;;;4.40;91.00;;;;;;5051085;28;19943;-76
2021/12/25 07:14:28;;;;;;;;;;;4.50;90.60;;;;;;5050751;28;19996;-76
2021/12/25 07:16:53;;;;;;;;;;;4.50;90.30;;;;;;5050848;28;20421;-76
2021/12/25 07:19:19;;;;;;;;;;;4.50;90.30;;;;;;5051297;28;20002;-76
2021/12/25 07:21:45;;;;;;;;;;;4.60;90.30;;;;;;5054556;28;19980;-76
2021/12/25 07:24:11;;;;;;;;;;;4.60;90.10;;;;;;5054499;28;20207;-76
2021/12/25 07:26:38;;;;;;;;;;;4.60;90.10;;;;;;5054271;28;19969;-76
2021/12/25 07:29:03;;;;;;;;;;;4.50;90.30;;;;;;5053347;28;19953;-76
2021/12/25 07:31:29;;;;;;;;;;;4.40;90.60;;;;;;5053253;28;19954;-76
2021/12/25 07:33:54;;;;;;;;;;;4.40;90.80;;;;;;5054364;28;20310;-76
2021/12/25 07:36:20;;;;;;;;;;;4.40;91.00;;;;;;5053476;28;20317;-76
2021/12/25 07:38:46;;;;;;;;;;;4.40;91.20;;;;;;5053454;28;20331;-76
2021/12/25 07:41:12;;;;;;;;;;;4.40;91.20;;;;;;5054536;28;20031;-76
2021/12/25 07:43:37;;;;;;;;;;;4.40;91.40;;;;;;5053260;28;19955;-76
2021/12/25 07:46:03;;;;;;;;;;;4.40;90.80;;;;;;5054198;28;19980;-76
2021/12/25 07:48:29;;;;;;;;;;;4.40;90.70;;;;;;5053321;28;20041;-76
2021/12/25 07:50:55;;;;;;;;;;;4.40;90.90;;;;;;5054484;28;20419;-76
2021/12/25 07:53:20;;;;;;;;;;;4.40;91.10;;;;;;5054325;28;20398;-76
2021/12/25 07:55:50;;;;;;;;;;;4.40;91.00;;;;;;5053105;28;19947;-76
2021/12/25 07:58:16;;;;;;;;;;;4.40;91.10;;;;;;5053285;28;19944;-76
2021/12/25 08:00:41;;;;;;;;;;;4.50;91.10;;;;;;5054144;28;19950;-76
2021/12/25 08:03:07;;;;;;;;;;;4.40;91.00;;;;;;5052692;28;20039;-76
2021/12/25 08:05:33;;;;;;;;;;;4.50;91.10;;;;;;5054189;28;19945;-76
2021/12/25 08:07:58;;;;;;;;;;;4.50;91.10;;;;;;5046325;28;20097;-76
2021/12/25 08:10:24;;;;;;;;;;;4.50;91.00;;;;;;5052813;28;19940;-76
2021/12/25 08:12:54;;;;;;;;;;;4.50;90.90;;;;;;5052721;28;19941;-76
2021/12/25 08:15:21;;;;;;;;;;;4.50;90.80;;;;;;5054359;28;19950;-76
2021/12/25 08:17:47;;;;;;;;;;;4.60;91.00;;;;;;5054040;28;19987;-76
2021/12/25 08:20:13;;;;;;;;;;;4.60;90.70;;;;;;5052280;28;19943;-76
2021/12/25 08:22:39;;;;;;;;;;;4.70;90.70;;;;;;5053542;28;19949;-76
2021/12/25 08:25:04;;;;;;;;;;;4.70;90.50;;;;;;5054142;28;19998;-76
2021/12/25 08:27:30;;;;;;;;;;;4.80;90.50;;;;;;5053451;28;20018;-76
2021/12/25 08:29:56;;;;;;;;;;;4.90;90.10;;;;;;5052779;28;19952;-76
2021/12/25 08:32:21;;;;;;;;;;;5.00;90.00;;;;;;5052882;28;20408;-76
2021/12/25 08:34:47;;;;;;;;;;;5.10;89.30;;;;;;5053396;28;19948;-76
2021/12/25 08:37:13;;;;;;;;;;;5.20;89.00;;;;;;5053509;28;19948;-76
2021/12/25 08:39:38;;;;;;;;;;;5.30;88.80;;;;;;5053854;28;19968;-76
2021/12/25 08:42:05;;;;;;;;;;;5.30;88.00;;;;;;5053490;28;19974;-76
2021/12/25 08:46:59;;;;;;;;;;;5.50;87.40;;;;;;5053835;28;19968;-76
2021/12/25 08:49:29;;;;;;;;;;;5.60;87.30;;;;;;5052156;28;19943;-76
2021/12/25 08:51:56;;;;;;;;;;;5.50;87.30;;;;;;5053803;28;19938;-76
2021/12/25 08:54:21;;;;;;;;;;;5.50;87.70;;;;;;5052359;28;19952;-76
2021/12/25 08:56:47;;;;;;;;;;;5.50;87.50;;;;;;5052666;28;20040;-76
2021/12/25 08:59:12;;;;;;;;;;;5.60;87.30;;;;;;5052433;28;20044;-76
2021/12/25 09:01:38;;;;;;;;;;;5.70;87.20;;;;;;5051803;28;19947;-76
2021/12/25 09:04:04;;;;;;;;;;;5.70;86.40;;;;;;5053107;28;20319;-76
2021/12/25 09:06:29;;;;;;;;;;;5.70;86.50;;;;;;5051398;28;19967;-76
2021/12/25 09:08:55;;;;;;;;;;;5.80;85.80;;;;;;5048406;28;19942;-76
2021/12/25 09:11:21;;;;;;;;;;;5.90;85.10;;;;;;5052150;28;20450;-76
2021/12/25 09:13:48;;;;;;;;;;;5.90;84.30;;;;;;5053292;28;20333;-76
2021/12/25 09:16:13;;;;;;;;;;;5.90;84.30;;;;;;5052700;28;20027;-76
2021/12/25 09:18:39;;;;;;;;;;;6.00;84.10;;;;;;5051418;28;20036;-76
2021/12/25 09:21:04;;;;;;;;;;;6.00;83.50;;;;;;5052342;28;19941;-76
2021/12/25 09:23:30;;;;;;;;;;;6.10;83.30;;;;;;5052608;28;19941;-76
2021/12/25 09:25:55;;;;;;;;;;;6.20;82.80;;;;;;5052356;28;20014;-76
2021/12/25 09:28:21;;;;;;;;;;;6.30;82.60;;;;;;5051892;28;19977;-76
2021/12/25 09:30:47;;;;;;;;;;;6.20;82.10;;;;;;5053347;28;19940;-76
2021/12/25 09:33:13;;;;;;;;;;;6.20;82.70;;;;;;5051351;28;19946;-76
2021/12/25 09:35:38;;;;;;;;;;;6.20;83.00;;;;;;5051813;28;19948;-76
2021/12/25 09:38:04;;;;;;;;;;;6.10;83.40;;;;;;5052908;28;19945;-76
2021/12/25 09:40:29;;;;;;;;;;;6.20;83.00;;;;;;5051566;28;20042;-76
2021/12/25 09:42:55;;;;;;;;;;;6.30;82.80;;;;;;5052526;28;20348;-76
2021/12/25 09:45:21;;;;;;;;;;;6.40;82.60;;;;;;5052702;28;19983;-76
2021/12/25 09:47:47;;;;;;;;;;;6.50;82.00;;;;;;5052472;28;20343;-76
2021/12/25 09:50:13;;;;;;;;;;;6.50;81.80;;;;;;5050728;28;19949;-76
2021/12/25 09:52:39;;;;;;;;;;;6.50;81.40;;;;;;5052812;28;19994;-76
2021/12/25 09:55:05;;;;;;;;;;;6.50;81.10;;;;;;5052859;28;19938;-76
2021/12/25 09:57:31;;;;;;;;;;;6.40;81.10;;;;;;5053209;28;19946;-76
2021/12/25 09:59:56;;;;;;;;;;;6.40;81.50;;;;;;5052749;28;19947;-76
2021/12/25 10:02:22;;;;;;;;;;;6.40;81.60;;;;;;5052999;28;19974;-76
2021/12/25 10:04:49;;;;;;;;;;;6.40;81.80;;;;;;5052992;28;19988;-76
2021/12/25 10:07:17;;;;;;;;;;;6.50;82.10;;;;;;5047231;28;19962;-76
2021/12/25 10:09:52;;;;;;;;;;;6.50;82.40;;;;;;5051027;28;20023;-76
2021/12/25 10:12:18;;;;;;;;;;;6.70;81.90;;;;;;5050193;28;19947;-76
2021/12/25 10:14:51;;;;;;;;;;;6.80;81.00;;;;;;5050674;28;20025;-76
2021/12/25 10:17:17;;;;;;;;;;;6.90;81.00;;;;;;5050856;28;19950;-76
2021/12/25 10:19:58;;;;;;;;;;;7.00;80.50;;;;;;5050647;28;20004;-76
2021/12/25 10:22:23;;;;;;;;;;;7.00;80.30;;;;;;5050660;28;20192;-76
2021/12/25 10:25:02;;;;;;;;;;;6.90;81.00;;;;;;5050499;28;20000;-76
2021/12/25 10:27:28;;;;;;;;;;;6.90;79.90;;;;;;5051836;28;19966;-76
2021/12/25 10:30:00;;;;;;;;;;;6.90;80.20;;;;;;5050902;28;19955;-76
2021/12/25 10:32:26;;;;;;;;;;;6.90;79.50;;;;;;5052505;28;19939;-76
2021/12/25 10:34:53;;;;;;;;;;;6.90;79.40;;;;;;5050736;28;20404;-76
2021/12/25 10:37:20;;;;;;;;;;;6.90;79.80;;;;;;5051767;28;19941;-76
2021/12/25 10:39:46;;;;;;;;;;;6.80;80.20;;;;;;5052688;28;19941;-76
2021/12/25 10:42:16;;;;;;;;;;;6.90;80.20;;;;;;5050639;28;19954;-76
2021/12/25 10:44:44;;;;;;;;;;;6.90;80.50;;;;;;5052069;28;19974;-76
2021/12/25 10:47:13;;;;;;;;;;;6.90;80.00;;;;;;5049920;28;19971;-76
2021/12/25 10:49:44;;;;;;;;;;;7.10;79.00;;;;;;5050260;28;19951;-76
2021/12/25 10:52:20;;;;;;;;;;;7.10;79.10;;;;;;5051541;28;19973;-76
2021/12/25 10:54:48;;;;;;;;;;;7.00;79.10;;;;;;5050465;28;19952;-76
2021/12/25 10:57:49;;;;;;;;;;;6.90;79.10;;;;;;5052038;28;20016;-76
2021/12/25 11:00:14;;;;;;;;;;;6.90;79.60;;;;;;5049054;28;20513;-76
2021/12/25 11:02:48;;;;;;;;;;;6.90;79.70;;;;;;5050844;28;20051;-76
2021/12/25 11:05:18;;;;;;;;;;;7.00;79.10;;;;;;5051702;28;20400;-76
2021/12/25 11:07:45;;;;;;;;;;;7.10;78.40;;;;;;5043239;28;20075;-76
2021/12/25 11:10:12;;;;;;;;;;;7.10;77.90;;;;;;5050079;28;19953;-76
2021/12/25 11:12:38;;;;;;;;;;;7.10;77.50;;;;;;5050196;28;19954;-76
2021/12/25 11:15:17;;;;;;;;;;;7.00;77.70;;;;;;5049774;28;20456;-76
2021/12/25 11:17:43;;;;;;;;;;;6.90;78.30;;;;;;5050841;28;20031;-76
2021/12/25 11:20:18;;;;;;;;;;;6.80;78.90;;;;;;5050087;28;19947;-76
2021/12/25 11:22:48;;;;;;;;;;;6.80;79.00;;;;;;5029364;28;19953;-76
2021/12/25 11:25:13;;;;;;;;;;;6.70;79.00;;;;;;5027184;28;19935;-76
2021/12/25 11:27:39;;;;;;;;;;;6.70;78.90;;;;;;5027067;28;20073;-76
2021/12/25 11:30:05;;;;;;;;;;;6.70;79.40;;;;;;5031240;28;19955;-76
2021/12/25 11:32:31;;;;;;;;;;;6.80;79.50;;;;;;5030692;28;19970;-76
2021/12/25 11:34:58;;;;;;;;;;;6.80;79.90;;;;;;5029850;28;20098;-76
2021/12/25 11:37:25;;;;;;;;;;;6.90;79.90;;;;;;5031105;28;19944;-76
2021/12/25 11:39:53;;;;;;;;;;;6.90;80.10;;;;;;5029573;28;19975;-76
2021/12/25 11:42:19;;;;;;;;;;;6.80;80.30;;;;;;5029789;28;19983;-76
2021/12/25 11:44:49;;;;;;;;;;;6.80;80.50;;;;;;5029475;28;19982;-76
2021/12/25 11:47:31;;;;;;;;;;;6.70;81.10;;;;;;5031047;28;19964;-76
2021/12/25 11:49:59;;;;;;;;;;;6.60;81.50;;;;;;5029031;28;19949;-76
2021/12/25 11:52:33;;;;;;;;;;;6.60;81.80;;;;;;5029213;28;19993;-76
2021/12/25 12:00:49;;;;;;;;;;;6.50;84.50;;;;;;5030484;28;19944;-76
2021/12/25 12:03:33;;;;;;;;;;;6.50;85.20;;;;;;5029043;28;19946;-76
2021/12/25 12:05:59;;;;;;;;;;;6.60;84.40;;;;;;5030033;28;19951;-76
2021/12/25 12:08:25;;;;;;;;;;;6.50;83.70;;;;;;5026417;28;20477;-76
2021/12/25 12:10:55;;;;;;;;;;;6.60;83.90;;;;;;5034257;28;19937;-76
2021/12/25 12:13:22;;;;;;;;;;;6.60;83.80;;;;;;5032669;28;19952;-76
2021/12/25 12:15:50;;;;;;;;;;;6.60;83.40;;;;;;5034293;28;19946;-76
2021/12/25 12:18:24;;;;;;;;;;;6.50;83.70;;;;;;5034010;28;19937;-76
2021/12/25 12:20:50;;;;;;;;;;;6.60;83.70;;;;;;5033607;28;19942;-76
2021/12/25 12:23:35;;;;;;;;;;;6.60;83.40;;;;;;5033884;28;20416;-76
2021/12/25 12:26:08;;;;;;;;;;;6.70;83.60;;;;;;5033126;28;20423;-76
2021/12/25 12:28:47;;;;;;;;;;;6.70;83.90;;;;;;5032368;28;20032;-76
2021/12/25 12:31:31;;;;;;;;;;;6.60;83.90;;;;;;5033973;28;19936;-76
2021/12/25 12:33:57;;;;;;;;;;;6.60;84.20;;;;;;5033894;28;19944;-76
2021/12/25 12:36:24;;;;;;;;;;;6.70;84.30;;;;;;5033951;28;19941;-76
2021/12/25 12:38:54;;;;;;;;;;;6.70;83.70;;;;;;5033508;28;19993;-76
2021/12/25 12:41:38;;;;;;;;;;;6.70;84.20;;;;;;5033659;28;19945;-76
2021/12/25 12:44:06;;;;;;;;;;;6.70;84.40;;;;;;5033920;28;19942;-76
2021/12/25 12:46:47;;;;;;;;;;;6.70;84.10;;;;;;5033581;28;19987;-76
2021/12/25 12:49:14;;;;;;;;;;;6.70;84.10;;;;;;5031935;28;20022;-76
2021/12/25 12:51:39;;;;;;;;;;;6.70;84.30;;;;;;5033610;28;19989;-76
2021/12/25 12:54:05;;;;;;;;;;;6.70;84.30;;;;;;5033671;28;20526;-76
2021/12/25 12:56:31;;;;;;;;;;;6.70;84.70;;;;;;5032110;28;19947;-76
2021/12/25 12:58:57;;;;;;;;;;;6.80;84.70;;;;;;5033500;28;19941;-76
2021/12/25 13:01:26;;;;;;;;;;;6.80;84.20;;;;;;5032973;28;20023;-76
2021/12/25 13:03:59;;;;;;;;;;;6.80;84.10;;;;;;5033359;28;19942;-76
2021/12/25 13:06:28;;;;;;;;;;;6.90;83.70;;;;;;5030312;28;20038;-76
2021/12/25 13:08:54;;;;;;;;;;;7.10;83.20;;;;;;5028397;28;19944;-76
2021/12/25 13:11:26;;;;;;;;;;;7.10;83.10;;;;;;5033526;28;19951;-76
2021/12/25 13:13:59;;;;;;;;;;;7.20;82.80;;;;;;5031229;28;19951;-76
2021/12/25 13:16:31;;;;;;;;;;;7.30;82.20;;;;;;5032918;28;19958;-76
2021/12/25 13:18:59;;;;;;;;;;;7.30;81.90;;;;;;5031406;28;20408;-76
2021/12/25 13:21:26;;;;;;;;;;;7.20;81.90;;;;;;5032904;28;19948;-76
2021/12/25 13:23:56;;;;;;;;;;;7.40;82.10;;;;;;5032665;28;19942;-76
2021/12/25 13:26:23;;;;;;;;;;;7.40;81.90;;;;;;5030679;28;20455;-76
2021/12/25 13:28:50;;;;;;;;;;;7.40;81.90;;;;;;5031476;28;19948;-76
2021/12/25 13:31:18;;;;;;;;;;;7.40;81.70;;;;;;5032815;28;19947;-76
2021/12/25 13:34:11;;;;;;;;;;;7.40;81.60;;;;;;5032493;28;19993;-76
2021/12/25 13:36:39;;;;;;;;;;;7.40;81.60;;;;;;5031692;28;19946;-76
2021/12/25 13:39:09;;;;;;;;;;;7.30;81.70;;;;;;5031045;28;19947;-76
2021/12/25 13:41:39;;;;;;;;;;;7.30;82.30;;;;;;5032485;28;19937;-76
2021/12/25 13:44:06;;;;;;;;;;;7.30;82.10;;;;;;5032768;28;20402;-76
2021/12/25 13:46:48;;;;;;;;;;;7.30;82.20;;;;;;5031829;28;19980;-76
2021/12/25 13:49:31;;;;;;;;;;;7.40;81.90;;;;;;5032128;28;19955;-76
2021/12/25 13:51:58;;;;;;;;;;;7.40;82.10;;;;;;5031767;28;20491;-76
2021/12/25 13:54:24;;;;;;;;;;;7.30;82.20;;;;;;5031834;28;19941;-76
2021/12/25 13:56:50;;;;;;;;;;;7.20;82.70;;;;;;5030989;28;20401;-76
2021/12/25 13:59:16;;;;;;;;;;;7.20;83.20;;;;;;5031991;28;19964;-76
2021/12/25 14:01:42;;;;;;;;;;;7.20;83.10;;;;;;5032262;28;19948;-76
2021/12/25 14:04:08;;;;;;;;;;;7.10;82.70;;;;;;5029779;28;19947;-76
2021/12/25 14:06:34;;;;;;;;;;;7.10;83.00;;;;;;5029638;28;20035;-76
2021/12/25 14:08:59;;;;;;;;;;;7.10;83.30;;;;;;5027046;28;20023;-76
2021/12/25 14:11:28;;;;;;;;;;;7.10;83.20;;;;;;5030389;28;19956;-76
2021/12/25 14:13:54;;;;;;;;;;;7.00;83.30;;;;;;5031697;28;19945;-76
2021/12/25 14:16:19;;;;;;;;;;;7.00;83.10;;;;;;5030202;28;20252;-76
2021/12/25 14:18:45;;;;;;;;;;;7.00;83.10;;;;;;5030511;28;20373;-76
2021/12/25 14:21:12;;;;;;;;;;;7.00;83.50;;;;;;5029934;28;19949;-76
2021/12/25 14:23:37;;;;;;;;;;;7.00;83.70;;;;;;5031478;28;19949;-76
2021/12/25 14:26:03;;;;;;;;;;;7.00;83.80;;;;;;5029904;28;19978;-76
2021/12/25 14:28:29;;;;;;;;;;;7.00;83.80;;;;;;5030767;28;19967;-76
2021/12/25 14:31:08;;;;;;;;;;;6.90;83.70;;;;;;5031407;28;19936;-76
2021/12/25 14:33:36;;;;;;;;;;;6.90;83.80;;;;;;5031279;28;19947;-76
2021/12/25 14:36:07;;;;;;;;;;;6.90;84.20;;;;;;5029736;28;19944;-76
2021/12/25 14:38:51;;;;;;;;;;;6.90;84.50;;;;;;5031232;28;19946;-76
2021/12/25 14:41:23;;;;;;;;;;;6.90;84.60;;;;;;5031302;28;19943;-76
2021/12/25 14:43:49;;;;;;;;;;;6.90;84.70;;;;;;5031379;28;19939;-76
2021/12/25 14:46:18;;;;;;;;;;;6.80;84.90;;;;;;5051738;22;19987;-76
2021/12/25 14:48:45;;;;;;;;;;;6.90;84.80;;;;;;5050790;28;20579;-76
2021/12/25 14:51:12;;;;;;;;;;;6.90;84.60;;;;;;5049555;28;19955;-76
2021/12/25 14:53:46;;;;;;;;;;;6.80;84.80;;;;;;5050370;28;19955;-76
2021/12/25 14:56:19;;;;;;;;;;;6.80;84.80;;;;;;5051230;28;20489;-76
2021/12/25 14:58:46;;;;;;;;;;;6.70;85.20;;;;;;5051302;28;19942;-76
2021/12/25 15:01:13;;;;;;;;;;;6.80;85.20;;;;;;5049385;28;19985;-76
2021/12/25 15:03:40;;;;;;;;;;;6.70;85.40;;;;;;5049529;28;20036;-76
2021/12/25 15:06:16;;;;;;;;;;;6.70;85.60;;;;;;5050155;28;20044;-76
2021/12/25 15:08:41;;;;;;;;;;;6.70;85.60;;;;;;5043285;28;19975;-76
2021/12/25 15:11:09;;;;;;;;;;;6.60;86.00;;;;;;5049452;28;19947;-76
2021/12/25 15:13:35;;;;;;;;;;;6.60;85.90;;;;;;5049573;28;19949;-76
2021/12/25 15:16:02;;;;;;;;;;;6.60;85.90;;;;;;5050876;28;20035;-76
2021/12/25 15:18:29;;;;;;;;;;;6.60;86.20;;;;;;5051101;28;19956;-76
2021/12/25 15:21:09;;;;;;;;;;;6.60;86.30;;;;;;5050716;28;19972;-76
2021/12/25 15:23:35;;;;;;;;;;;6.60;86.50;;;;;;5049714;28;19948;-76
2021/12/25 15:26:18;;;;;;;;;;;6.50;86.50;;;;;;5050604;28;19967;-76
2021/12/25 15:28:53;;;;;;;;;;;6.60;86.50;;;;;;5049953;28;20010;-76
2021/12/25 15:31:20;;;;;;;;;;;6.60;86.60;;;;;;5051352;28;19934;-76
2021/12/25 15:33:52;;;;;;;;;;;6.50;86.80;;;;;;5051126;28;19936;-76
2021/12/25 15:36:18;;;;;;;;;;;6.50;87.10;;;;;;5051455;28;19944;-76
2021/12/25 15:38:43;;;;;;;;;;;6.50;87.40;;;;;;5049491;28;19955;-76
2021/12/25 15:41:09;;;;;;;;;;;6.40;87.50;;;;;;5052152;28;20387;-76
2021/12/25 15:43:35;;;;;;;;;;;6.40;87.60;;;;;;5055035;28;19963;-76
2021/12/25 15:46:03;;;;;;;;;;;6.40;87.50;;;;;;5054766;28;20427;-76
2021/12/25 15:48:29;;;;;;;;;;;6.40;87.50;;;;;;5053358;28;20077;-76
2021/12/25 15:50:55;;;;;;;;;;;6.40;87.60;;;;;;5055489;28;19938;-76
2021/12/25 15:53:20;;;;;;;;;;;6.40;87.70;;;;;;5056321;28;20298;-76